createdAt,value
2022-08-19T00:00:54.205Z,2.10
2022-08-19T00:01:54.183Z,2.10
2022-08-19T00:02:54.533Z,2.40
2022-08-19T00:03:54.601Z,2.40
2022-08-19T00:04:54.234Z,2.60
2022-08-19T00:05:54.158Z,1.90
2022-08-19T00:06:54.139Z,2.30
2022-08-19T00:07:54.110Z,2.50
2022-08-19T00:08:54.151Z,2.50
2022-08-19T00:09:54.135Z,2.40
2022-08-19T00:10:54.399Z,1.90
2022-08-19T00:11:54.073Z,2.50
2022-08-19T00:12:54.064Z,2.30
2022-08-19T00:13:54.051Z,1.80
2022-08-19T00:14:54.064Z,2.40
2022-08-19T00:15:54.068Z,2.10
2022-08-19T00:16:54.022Z,2.30
2022-08-19T00:17:54.449Z,2.40
2022-08-19T00:18:54.006Z,2.60
2022-08-19T00:19:54.025Z,2.50
2022-08-19T00:20:54.008Z,2.80
2022-08-19T00:21:54.017Z,2.50
2022-08-19T00:22:54.149Z,2.80
2022-08-19T00:23:54.301Z,2.90
2022-08-19T00:24:53.939Z,3.20
2022-08-19T00:25:53.920Z,2.50
2022-08-19T00:26:53.921Z,2.30
2022-08-19T00:27:53.948Z,2.70
2022-08-19T00:28:53.932Z,2.50
2022-08-19T00:29:53.884Z,2.80
2022-08-19T00:30:53.897Z,3.10
2022-08-19T00:31:53.871Z,3.10
2022-08-19T00:32:54.100Z,2.50
2022-08-19T00:33:53.882Z,2.50
2022-08-19T00:34:53.856Z,2.60
2022-08-19T00:35:55.965Z,3.30
2022-08-19T00:36:53.826Z,3.10
2022-08-19T00:37:53.801Z,3.70
2022-08-19T00:38:53.795Z,3.60
2022-08-19T00:39:53.837Z,3.70
2022-08-19T00:40:53.838Z,3.30
2022-08-19T00:41:53.792Z,3.50
2022-08-19T00:42:54.207Z,3.00
2022-08-19T00:43:53.747Z,3.40
2022-08-19T00:44:53.753Z,3.60
2022-08-19T00:45:53.753Z,3.50
2022-08-19T00:46:57.833Z,4.60
2022-08-19T00:47:53.689Z,4.20
2022-08-19T00:48:53.706Z,3.70
2022-08-19T00:49:54.066Z,3.30
2022-08-19T00:50:53.673Z,3.40
2022-08-19T00:51:53.741Z,3.80
2022-08-19T00:52:53.859Z,3.90
2022-08-19T00:53:53.637Z,3.50
2022-08-19T00:54:53.632Z,3.50
2022-08-19T00:55:53.618Z,3.70
2022-08-19T00:56:55.191Z,3.00
2022-08-19T00:57:53.622Z,3.30
2022-08-19T00:58:53.591Z,3.10
2022-08-19T01:00:02.299Z,3.50
2022-08-19T01:00:53.565Z,3.70
2022-08-19T01:01:53.608Z,3.90
2022-08-19T01:02:53.695Z,4.00
2022-08-19T01:03:57.700Z,3.80
2022-08-19T01:04:53.557Z,3.90
2022-08-19T01:05:53.509Z,3.20
2022-08-19T01:06:53.517Z,3.70
2022-08-19T01:07:53.493Z,4.00
2022-08-19T01:08:53.505Z,3.80
2022-08-19T01:09:53.491Z,3.30
2022-08-19T01:10:53.787Z,3.40
2022-08-19T01:11:53.441Z,3.30
2022-08-19T01:12:53.561Z,2.90
2022-08-19T01:13:53.442Z,4.20
2022-08-19T01:14:53.416Z,3.30
2022-08-19T01:15:53.431Z,3.10
2022-08-19T01:16:53.397Z,3.50
2022-08-19T01:17:53.814Z,3.60
2022-08-19T01:18:53.375Z,4.00
2022-08-19T01:19:53.360Z,3.70
2022-08-19T01:20:53.365Z,3.50
2022-08-19T01:21:53.370Z,4.30
2022-08-19T01:22:53.470Z,3.60
2022-08-19T01:23:53.318Z,3.90
2022-08-19T01:24:53.668Z,3.50
2022-08-19T01:25:53.292Z,3.80
2022-08-19T01:26:53.298Z,3.70
2022-08-19T01:27:53.808Z,3.40
2022-08-19T01:28:53.263Z,3.90
2022-08-19T01:29:53.282Z,4.50
2022-08-19T01:30:53.399Z,3.60
2022-08-19T01:31:53.714Z,4.20
2022-08-19T01:32:53.383Z,3.90
2022-08-19T01:33:53.236Z,3.60
2022-08-19T01:34:53.213Z,4.30
2022-08-19T01:35:53.196Z,3.90
2022-08-19T01:36:53.177Z,4.10
2022-08-19T01:37:53.175Z,3.60
2022-08-19T01:38:53.558Z,4.30
2022-08-19T01:39:53.244Z,3.50
2022-08-19T01:40:53.162Z,4.20
2022-08-19T01:41:53.120Z,4.00
2022-08-19T01:42:53.277Z,4.00
2022-08-19T01:44:16.902Z,4.00
2022-08-19T01:44:53.594Z,3.50
2022-08-19T01:45:53.112Z,3.50
2022-08-19T01:46:53.082Z,3.40
2022-08-19T01:48:02.354Z,3.60
2022-08-19T01:48:53.066Z,3.40
2022-08-19T01:49:53.059Z,4.10
2022-08-19T01:50:53.053Z,3.60
2022-08-19T01:51:53.536Z,4.10
2022-08-19T01:53:02.347Z,3.80
2022-08-19T01:53:53.052Z,3.90
2022-08-19T01:54:52.996Z,3.20
2022-08-19T01:55:52.998Z,3.60
2022-08-19T01:56:52.985Z,3.90
2022-08-19T01:57:53.012Z,3.80
2022-08-19T01:58:53.289Z,4.10
2022-08-19T01:59:52.936Z,3.80
2022-08-19T02:00:52.931Z,4.00
2022-08-19T02:01:53.017Z,3.70
2022-08-19T02:02:53.100Z,3.90
2022-08-19T02:03:52.928Z,3.90
2022-08-19T02:04:52.888Z,3.50
2022-08-19T02:05:53.340Z,3.50
2022-08-19T02:06:52.891Z,3.40
2022-08-19T02:07:52.879Z,3.20
2022-08-19T02:08:52.844Z,3.90
2022-08-19T02:09:52.860Z,3.70
2022-08-19T02:10:52.816Z,3.60
2022-08-19T02:11:52.817Z,3.60
2022-08-19T02:12:53.327Z,3.50
2022-08-19T02:13:52.783Z,4.10
2022-08-19T02:14:52.776Z,3.90
2022-08-19T02:15:52.816Z,4.40
2022-08-19T02:16:52.766Z,3.70
2022-08-19T02:17:52.753Z,3.50
2022-08-19T02:18:52.742Z,3.90
2022-08-19T02:19:53.222Z,3.40
2022-08-19T02:20:52.716Z,3.50
2022-08-19T02:21:52.729Z,3.60
2022-08-19T02:22:52.884Z,3.20
2022-08-19T02:23:52.695Z,2.80
2022-08-19T02:24:52.683Z,3.60
2022-08-19T02:25:52.746Z,3.90
2022-08-19T02:26:53.062Z,3.70
2022-08-19T02:27:52.678Z,3.40
2022-08-19T02:28:52.641Z,3.60
2022-08-19T02:29:52.650Z,3.70
2022-08-19T02:30:52.616Z,3.30
2022-08-19T02:31:52.597Z,3.00
2022-08-19T02:32:52.587Z,3.20
2022-08-19T02:33:52.959Z,3.80
2022-08-19T02:34:52.578Z,2.90
2022-08-19T02:35:52.565Z,3.90
2022-08-19T02:36:52.552Z,3.50
2022-08-19T02:37:52.535Z,3.40
2022-08-19T02:38:55.178Z,3.30
2022-08-19T02:39:52.620Z,3.40
2022-08-19T02:40:52.969Z,3.30
2022-08-19T02:41:52.501Z,3.20
2022-08-19T02:42:52.673Z,3.50
2022-08-19T02:44:28.911Z,3.70
2022-08-19T02:44:52.473Z,3.70
2022-08-19T02:45:52.493Z,3.60
2022-08-19T02:46:52.542Z,3.30
2022-08-19T02:47:52.805Z,4.00
2022-08-19T02:48:52.429Z,3.60
2022-08-19T02:49:52.421Z,4.20
2022-08-19T02:50:53.637Z,4.00
2022-08-19T02:51:52.433Z,3.30
2022-08-19T02:52:52.653Z,3.70
2022-08-19T02:53:52.376Z,3.30
2022-08-19T02:54:52.838Z,4.10
2022-08-19T02:55:52.359Z,4.60
2022-08-19T02:56:52.345Z,4.20
2022-08-19T02:57:52.357Z,3.80
2022-08-19T02:58:52.332Z,4.80
2022-08-19T02:59:52.303Z,4.10
2022-08-19T03:00:52.392Z,4.00
2022-08-19T03:01:52.751Z,4.10
2022-08-19T03:02:52.538Z,4.90
2022-08-19T03:03:52.579Z,4.40
2022-08-19T03:04:52.255Z,3.20
2022-08-19T03:05:56.439Z,4.30
2022-08-19T03:06:52.249Z,4.20
2022-08-19T03:07:52.217Z,3.70
2022-08-19T03:08:52.531Z,3.90
2022-08-19T03:09:52.247Z,4.40
2022-08-19T03:10:52.192Z,4.30
2022-08-19T03:11:52.628Z,4.00
2022-08-19T03:12:52.412Z,4.10
2022-08-19T03:13:52.164Z,3.90
2022-08-19T03:14:52.143Z,3.30
2022-08-19T03:15:52.473Z,4.60
2022-08-19T03:16:52.131Z,4.30
2022-08-19T03:17:52.133Z,4.10
2022-08-19T03:18:52.104Z,4.10
2022-08-19T03:19:52.098Z,4.70
2022-08-19T03:20:52.085Z,4.40
2022-08-19T03:21:52.114Z,4.40
2022-08-19T03:22:52.575Z,3.50
2022-08-19T03:23:52.056Z,4.10
2022-08-19T03:24:52.041Z,4.70
2022-08-19T03:25:58.177Z,5.10
2022-08-19T03:26:52.027Z,4.40
2022-08-19T03:27:52.085Z,4.90
2022-08-19T03:28:58.138Z,4.60
2022-08-19T03:29:52.066Z,5.20
2022-08-19T03:30:52.031Z,4.10
2022-08-19T03:31:52.830Z,4.80
2022-08-19T03:32:57.097Z,4.60
2022-08-19T03:33:51.992Z,5.10
2022-08-19T03:34:51.944Z,4.70
2022-08-19T03:35:52.301Z,5.10
2022-08-19T03:36:51.920Z,5.50
2022-08-19T03:37:51.919Z,4.60
2022-08-19T03:38:56.433Z,4.40
2022-08-19T03:39:51.982Z,4.60
2022-08-19T03:40:51.914Z,4.50
2022-08-19T03:42:32.284Z,5.30
2022-08-19T03:42:51.861Z,3.90
2022-08-19T03:43:51.854Z,5.10
2022-08-19T03:44:51.837Z,3.90
2022-08-19T03:45:51.878Z,4.60
2022-08-19T03:46:51.861Z,3.70
2022-08-19T03:47:51.814Z,4.30
2022-08-19T03:48:52.188Z,4.60
2022-08-19T03:49:51.785Z,4.20
2022-08-19T03:50:51.783Z,3.90
2022-08-19T03:51:51.796Z,5.00
2022-08-19T03:52:51.965Z,4.20
2022-08-19T03:53:51.756Z,4.20
2022-08-19T03:54:51.727Z,4.30
2022-08-19T03:55:51.737Z,3.90
2022-08-19T03:56:51.702Z,4.20
2022-08-19T03:57:52.836Z,4.40
2022-08-19T03:58:51.694Z,5.10
2022-08-19T03:59:51.676Z,5.50
2022-08-19T04:00:52.106Z,4.80
2022-08-19T04:01:51.662Z,4.40
2022-08-19T04:02:58.011Z,5.10
2022-08-19T04:03:52.240Z,4.30
2022-08-19T04:04:51.618Z,5.40
2022-08-19T04:05:51.622Z,4.70
2022-08-19T04:06:51.607Z,5.30
2022-08-19T04:07:51.593Z,4.60
2022-08-19T04:08:51.586Z,5.00
2022-08-19T04:09:51.594Z,4.40
2022-08-19T04:10:51.552Z,4.00
2022-08-19T04:11:51.595Z,4.50
2022-08-19T04:12:52.157Z,4.70
2022-08-19T04:13:51.555Z,4.40
2022-08-19T04:14:51.522Z,4.90
2022-08-19T04:15:51.562Z,4.60
2022-08-19T04:16:51.492Z,3.90
2022-08-19T04:17:51.493Z,4.50
2022-08-19T04:18:51.477Z,3.90
2022-08-19T04:19:51.779Z,3.40
2022-08-19T04:20:51.445Z,4.00
2022-08-19T04:21:51.509Z,4.50
2022-08-19T04:22:51.511Z,4.40
2022-08-19T04:23:51.424Z,4.90
2022-08-19T04:24:51.426Z,4.80
2022-08-19T04:25:51.402Z,4.90
2022-08-19T04:26:51.848Z,5.10
2022-08-19T04:27:51.423Z,4.40
2022-08-19T04:28:51.395Z,4.00
2022-08-19T04:29:51.353Z,5.10
2022-08-19T04:30:51.345Z,4.50
2022-08-19T04:31:51.366Z,4.70
2022-08-19T04:32:51.326Z,4.00
2022-08-19T04:33:51.804Z,4.60
2022-08-19T04:35:01.589Z,4.40
2022-08-19T04:35:51.309Z,4.60
2022-08-19T04:36:51.278Z,4.40
2022-08-19T04:37:51.323Z,4.10
2022-08-19T04:38:51.266Z,4.00
2022-08-19T04:39:51.331Z,4.40
2022-08-19T04:40:51.238Z,4.70
2022-08-19T04:41:51.232Z,4.40
2022-08-19T04:42:51.211Z,5.60
2022-08-19T04:43:51.225Z,4.80
2022-08-19T04:44:51.200Z,4.90
2022-08-19T04:45:51.225Z,4.70
2022-08-19T04:46:51.988Z,4.10
2022-08-19T04:47:58.166Z,4.40
2022-08-19T04:48:51.188Z,4.30
2022-08-19T04:49:51.157Z,4.80
2022-08-19T04:50:51.153Z,4.30
2022-08-19T04:51:51.178Z,5.30
2022-08-19T04:52:51.647Z,4.20
2022-08-19T04:53:51.109Z,4.10
2022-08-19T04:54:51.101Z,4.30
2022-08-19T04:55:51.088Z,4.10
2022-08-19T04:56:51.071Z,4.10
2022-08-19T04:57:51.140Z,4.70
2022-08-19T04:58:51.052Z,3.70
2022-08-19T04:59:51.058Z,4.40
2022-08-19T05:00:51.097Z,4.10
2022-08-19T05:01:51.049Z,4.20
2022-08-19T05:02:51.013Z,3.20
2022-08-19T05:03:51.034Z,4.20
2022-08-19T05:04:51.370Z,4.00
2022-08-19T05:05:50.979Z,3.60
2022-08-19T05:06:50.969Z,4.90
2022-08-19T05:07:50.973Z,4.90
2022-08-19T05:08:50.984Z,4.00
2022-08-19T05:09:58.390Z,3.80
2022-08-19T05:10:50.923Z,4.10
2022-08-19T05:11:50.973Z,3.90
2022-08-19T05:12:50.909Z,3.40
2022-08-19T05:13:50.955Z,4.20
2022-08-19T05:14:50.889Z,3.90
2022-08-19T05:15:50.914Z,4.30
2022-08-19T05:17:02.450Z,4.30
2022-08-19T05:17:50.895Z,3.90
2022-08-19T05:18:50.845Z,3.40
2022-08-19T05:19:50.871Z,4.20
2022-08-19T05:20:50.852Z,4.30
2022-08-19T05:21:50.846Z,4.40
2022-08-19T05:22:50.924Z,4.30
2022-08-19T05:23:51.086Z,5.60
2022-08-19T05:25:11.136Z,4.20
2022-08-19T05:25:50.808Z,4.50
2022-08-19T05:26:50.757Z,4.70
2022-08-19T05:27:50.817Z,4.50
2022-08-19T05:28:54.515Z,4.60
2022-08-19T05:29:50.731Z,4.90
2022-08-19T05:30:51.142Z,4.90
2022-08-19T05:31:50.717Z,5.30
2022-08-19T05:32:50.699Z,5.10
2022-08-19T05:33:50.730Z,4.60
2022-08-19T05:34:50.674Z,5.20
2022-08-19T05:35:50.662Z,5.10
2022-08-19T05:36:50.656Z,4.90
2022-08-19T05:37:54.858Z,5.00
2022-08-19T05:38:50.642Z,4.30
2022-08-19T05:39:51.698Z,4.10
2022-08-19T05:40:50.607Z,4.90
2022-08-19T05:41:50.623Z,4.20
2022-08-19T05:42:55.330Z,4.30
2022-08-19T05:43:50.623Z,4.20
2022-08-19T05:44:51.023Z,3.70
2022-08-19T05:45:50.629Z,4.30
2022-08-19T05:46:50.542Z,4.80
2022-08-19T05:47:50.552Z,4.30
2022-08-19T05:48:50.575Z,4.10
2022-08-19T05:49:50.519Z,3.90
2022-08-19T05:50:50.492Z,4.30
2022-08-19T05:51:50.536Z,4.20
2022-08-19T05:52:50.839Z,4.30
2022-08-19T05:53:50.485Z,4.70
2022-08-19T05:54:51.475Z,4.20
2022-08-19T05:55:50.452Z,4.60
2022-08-19T05:56:50.455Z,4.40
2022-08-19T05:57:50.752Z,4.50
2022-08-19T05:58:50.409Z,4.50
2022-08-19T05:59:57.595Z,5.20
2022-08-19T06:00:50.406Z,4.80
2022-08-19T06:01:50.377Z,4.00
2022-08-19T06:02:50.516Z,4.50
2022-08-19T06:03:50.409Z,5.00
2022-08-19T06:04:50.753Z,4.60
2022-08-19T06:05:52.205Z,4.60
2022-08-19T06:06:50.322Z,4.60
2022-08-19T06:07:50.474Z,4.50
2022-08-19T06:08:50.349Z,4.60
2022-08-19T06:09:59.881Z,4.60
2022-08-19T06:10:50.311Z,4.60
2022-08-19T06:11:52.911Z,4.20
2022-08-19T06:12:50.264Z,4.80
2022-08-19T06:13:50.261Z,6.00
2022-08-19T06:15:00.508Z,3.90
2022-08-19T06:15:50.284Z,4.20
2022-08-19T06:16:50.238Z,5.40
2022-08-19T06:17:50.323Z,3.90
2022-08-19T06:18:50.630Z,4.80
2022-08-19T06:19:50.191Z,4.50
2022-08-19T06:20:55.742Z,4.60
2022-08-19T06:21:50.210Z,4.40
2022-08-19T06:22:50.168Z,4.30
2022-08-19T06:23:50.185Z,5.20
2022-08-19T06:24:50.141Z,4.30
2022-08-19T06:25:50.516Z,4.70
2022-08-19T06:26:50.134Z,4.10
2022-08-19T06:28:13.891Z,4.30
2022-08-19T06:28:50.101Z,4.50
2022-08-19T06:29:50.080Z,4.10
2022-08-19T06:30:50.085Z,4.90
2022-08-19T06:31:50.071Z,4.30
2022-08-19T06:32:51.552Z,3.70
2022-08-19T06:33:50.236Z,4.40
2022-08-19T06:34:50.037Z,5.10
2022-08-19T06:35:50.031Z,4.00
2022-08-19T06:36:50.008Z,4.60
2022-08-19T06:37:49.997Z,4.30
2022-08-19T06:38:50.005Z,4.20
2022-08-19T06:39:50.507Z,3.70
2022-08-19T06:40:49.969Z,4.20
2022-08-19T06:41:52.489Z,3.70
2022-08-19T06:42:54.544Z,3.90
2022-08-19T06:43:49.970Z,4.20
2022-08-19T06:44:49.932Z,3.40
2022-08-19T06:45:49.964Z,3.50
2022-08-19T06:46:53.559Z,3.20
2022-08-19T06:47:49.911Z,4.00
2022-08-19T06:48:49.884Z,3.80
2022-08-19T06:49:49.912Z,4.20
2022-08-19T06:50:49.870Z,3.10
2022-08-19T06:51:49.885Z,3.60
2022-08-19T06:52:49.958Z,3.90
2022-08-19T06:54:55.796Z,3.70
2022-08-19T06:55:49.824Z,3.80
2022-08-19T06:56:49.816Z,4.00
2022-08-19T06:57:49.848Z,4.40
2022-08-19T06:58:49.807Z,3.40
2022-08-19T06:59:49.783Z,3.90
2022-08-19T07:00:50.060Z,4.40
2022-08-19T07:01:49.757Z,4.40
2022-08-19T07:02:54.681Z,3.70
2022-08-19T07:03:49.781Z,4.20
2022-08-19T07:04:52.743Z,3.90
2022-08-19T07:05:49.711Z,3.80
2022-08-19T07:06:55.039Z,3.80
2022-08-19T07:07:49.698Z,3.90
2022-08-19T07:08:49.736Z,3.50
2022-08-19T07:09:58.037Z,3.90
2022-08-19T07:10:49.678Z,4.10
2022-08-19T07:11:49.650Z,4.80
2022-08-19T07:12:49.730Z,3.40
2022-08-19T07:13:49.915Z,4.10
2022-08-19T07:14:49.615Z,3.70
2022-08-19T07:15:49.650Z,3.80
2022-08-19T07:16:49.633Z,3.80
2022-08-19T07:17:52.553Z,4.30
2022-08-19T07:18:49.577Z,4.50
2022-08-19T07:19:49.595Z,3.80
2022-08-19T07:20:49.580Z,3.90
2022-08-19T07:21:49.612Z,4.00
2022-08-19T07:22:49.534Z,3.90
2022-08-19T07:23:49.531Z,4.60
2022-08-19T07:48:27.905Z,3.50
2022-08-19T07:49:28.884Z,3.50
2022-08-19T07:50:28.851Z,3.20
2022-08-19T07:51:36.421Z,3.00
2022-08-19T07:52:28.850Z,3.40
2022-08-19T07:53:28.857Z,3.50
2022-08-19T07:54:29.094Z,3.60
2022-08-19T07:55:41.241Z,2.90
2022-08-19T07:56:28.795Z,3.60
2022-08-19T07:57:28.781Z,3.90
2022-08-19T07:58:28.774Z,3.70
2022-08-19T07:59:28.796Z,3.30
2022-08-19T08:00:28.744Z,4.20
2022-08-19T08:01:28.885Z,3.00
2022-08-19T08:02:28.727Z,2.90
2022-08-19T08:03:28.732Z,3.60
2022-08-19T08:04:28.728Z,3.10
2022-08-19T08:05:28.792Z,4.00
2022-08-19T08:06:29.001Z,3.30
2022-08-19T08:07:31.539Z,3.90
2022-08-19T08:08:28.705Z,3.60
2022-08-19T08:09:28.687Z,3.40
2022-08-19T08:10:28.656Z,2.90
2022-08-19T08:11:28.671Z,3.30
2022-08-19T08:12:34.690Z,4.10
2022-08-19T08:13:28.891Z,3.90
2022-08-19T08:14:29.649Z,3.00
2022-08-19T08:15:28.618Z,3.50
2022-08-19T08:16:28.593Z,3.50
2022-08-19T08:17:40.684Z,3.30
2022-08-19T08:18:30.342Z,3.50
2022-08-19T08:19:28.867Z,2.70
2022-08-19T08:20:28.554Z,3.20
2022-08-19T08:21:28.641Z,2.70
2022-08-19T08:22:28.550Z,2.20
2022-08-19T08:23:28.578Z,2.70
2022-08-19T08:24:29.070Z,2.80
2022-08-19T08:25:28.516Z,3.10
2022-08-19T08:26:28.804Z,3.20
2022-08-19T08:27:28.501Z,2.80
2022-08-19T08:28:29.778Z,2.70
2022-08-19T08:29:34.752Z,2.70
2022-08-19T08:30:28.473Z,2.60
2022-08-19T08:31:28.483Z,2.70
2022-08-19T08:32:28.447Z,2.50
2022-08-19T08:33:33.293Z,3.10
2022-08-19T08:34:28.441Z,2.40
2022-08-19T08:35:28.456Z,2.30
2022-08-19T08:36:28.393Z,2.50
2022-08-19T08:37:28.410Z,2.50
2022-08-19T08:38:28.514Z,2.60
2022-08-19T08:39:28.378Z,2.60
2022-08-19T08:40:28.663Z,2.10
2022-08-19T08:41:28.391Z,2.30
2022-08-19T08:42:28.359Z,2.50
2022-08-19T08:43:30.693Z,2.30
2022-08-19T08:44:28.336Z,3.20
2022-08-19T08:45:28.324Z,2.80
2022-08-19T08:46:31.041Z,2.70
2022-08-19T08:47:28.603Z,2.00
2022-08-19T08:48:28.296Z,2.30
2022-08-19T08:49:28.290Z,2.10
2022-08-19T08:50:28.272Z,2.10
2022-08-19T08:51:30.888Z,2.60
2022-08-19T08:52:32.036Z,3.30
2022-08-19T08:53:31.140Z,2.40
2022-08-19T08:54:28.265Z,2.70
2022-08-19T08:55:28.248Z,2.10
2022-08-19T08:56:28.256Z,2.80
2022-08-19T08:57:28.203Z,2.50
2022-08-19T08:58:28.214Z,2.80
2022-08-19T08:59:28.211Z,2.00
2022-08-19T09:00:28.463Z,1.80
2022-08-19T09:01:30.195Z,1.80
2022-08-19T09:02:28.182Z,2.50
2022-08-19T09:03:28.139Z,1.90
2022-08-19T09:04:28.197Z,1.90
2022-08-19T09:05:28.178Z,1.80
2022-08-19T09:06:28.154Z,1.50
2022-08-19T09:07:36.094Z,1.90
2022-08-19T09:08:28.145Z,2.20
2022-08-19T09:09:29.012Z,1.80
2022-08-19T09:10:28.082Z,1.70
2022-08-19T09:11:42.904Z,1.70
2022-08-19T09:12:28.075Z,1.80
2022-08-19T09:13:28.040Z,2.60
2022-08-19T09:14:49.227Z,1.80
2022-08-19T09:15:33.341Z,1.70
2022-08-19T09:16:28.268Z,2.10
2022-08-19T09:17:28.063Z,2.50
2022-08-19T09:18:29.825Z,2.60
2022-08-19T09:19:27.995Z,2.10
2022-08-19T09:20:27.976Z,2.00
2022-08-19T09:21:33.170Z,1.90
2022-08-19T09:22:27.966Z,1.50
2022-08-19T09:23:27.996Z,1.60
2022-08-19T09:24:28.118Z,1.90
2022-08-19T09:25:29.698Z,1.90
2022-08-19T09:26:35.270Z,2.10
2022-08-19T09:27:35.450Z,2.20
2022-08-19T09:28:27.913Z,2.30
2022-08-19T09:29:27.935Z,4.00
2022-08-19T09:30:27.889Z,3.10
2022-08-19T09:31:27.924Z,2.50
2022-08-19T09:32:27.872Z,2.20
2022-08-19T09:33:27.862Z,2.40
2022-08-19T09:34:28.133Z,2.90
2022-08-19T09:35:28.476Z,1.90
2022-08-19T09:36:31.136Z,1.50
2022-08-19T09:37:27.847Z,1.70
2022-08-19T09:38:27.817Z,2.10
2022-08-19T09:39:36.084Z,1.60
2022-08-19T09:40:27.937Z,2.10
2022-08-19T09:41:28.693Z,1.90
2022-08-19T09:42:29.929Z,1.80
2022-08-19T09:43:33.191Z,1.50
2022-08-19T09:44:27.759Z,1.40
2022-08-19T09:45:27.731Z,1.50
2022-08-19T09:46:28.033Z,1.40
2022-08-19T09:47:27.765Z,1.40
2022-08-19T09:48:27.707Z,1.70
2022-08-19T09:49:27.684Z,1.40
2022-08-19T09:50:27.719Z,1.60
2022-08-19T09:51:27.682Z,1.80
2022-08-19T09:52:32.515Z,1.80
2022-08-19T09:53:27.687Z,2.20
2022-08-19T09:54:27.662Z,1.70
2022-08-19T09:55:31.284Z,1.50
2022-08-19T09:56:27.634Z,2.10
2022-08-19T09:57:27.607Z,1.70
2022-08-19T09:58:27.901Z,1.90
2022-08-19T09:59:27.651Z,1.40
2022-08-19T10:00:27.593Z,1.30
2022-08-19T10:01:27.621Z,1.60
2022-08-19T10:02:28.941Z,2.10
2022-08-19T10:03:30.043Z,1.70
2022-08-19T10:04:27.572Z,1.40
2022-08-19T10:05:27.562Z,1.30
2022-08-19T10:06:46.146Z,1.00
2022-08-19T10:07:28.866Z,1.60
2022-08-19T10:08:27.516Z,2.20
2022-08-19T10:09:34.707Z,1.50
2022-08-19T10:10:27.512Z,1.80
2022-08-19T10:11:39.487Z,1.80
2022-08-19T10:12:27.480Z,1.50
2022-08-19T10:13:27.476Z,1.80
2022-08-19T10:14:27.474Z,1.70
2022-08-19T10:15:29.142Z,1.50
2022-08-19T10:16:30.229Z,1.50
2022-08-19T10:17:31.653Z,2.00
2022-08-19T10:18:27.432Z,2.20
2022-08-19T10:19:27.407Z,2.00
2022-08-19T10:20:27.400Z,1.50
2022-08-19T10:21:27.397Z,2.10
2022-08-19T10:22:27.380Z,1.60
2022-08-19T10:23:27.425Z,1.30
2022-08-19T10:24:27.358Z,2.00
2022-08-19T10:25:27.345Z,1.70
2022-08-19T10:26:27.340Z,2.40
2022-08-19T10:27:27.314Z,2.30
2022-08-19T10:28:27.304Z,2.40
2022-08-19T10:29:31.796Z,2.80
2022-08-19T10:30:27.301Z,1.30
2022-08-19T10:32:00.371Z,1.70
2022-08-19T10:32:34.223Z,1.90
2022-08-19T10:33:40.803Z,1.90
2022-08-19T10:34:28.409Z,1.40
2022-08-19T10:35:27.360Z,1.70
2022-08-19T10:36:27.258Z,1.70
2022-08-19T10:37:31.234Z,1.80
2022-08-19T10:38:29.299Z,1.90
2022-08-19T10:39:30.588Z,2.00
2022-08-19T10:40:27.302Z,1.70
2022-08-19T10:41:27.524Z,1.60
2022-08-19T10:42:27.168Z,1.30
2022-08-19T10:43:27.172Z,1.30
2022-08-19T10:44:31.981Z,1.20
2022-08-19T10:45:28.270Z,1.60
2022-08-19T10:46:27.192Z,1.60
2022-08-19T10:47:31.708Z,1.70
2022-08-19T10:48:27.140Z,1.60
2022-08-19T10:49:28.138Z,1.60
2022-08-19T10:50:28.831Z,1.40
2022-08-19T10:51:27.089Z,1.60
2022-08-19T10:52:32.473Z,1.50
2022-08-19T10:53:27.128Z,1.60
2022-08-19T10:54:33.335Z,1.30
2022-08-19T10:55:29.824Z,1.50
2022-08-19T10:56:27.061Z,2.40
2022-08-19T10:57:36.873Z,1.20
2022-08-19T10:58:27.030Z,1.50
2022-08-19T10:59:27.059Z,1.60
2022-08-19T11:00:27.016Z,1.30
2022-08-19T11:01:27.029Z,1.50
2022-08-19T11:02:26.977Z,1.30
2022-08-19T11:03:26.960Z,1.90
2022-08-19T11:04:29.494Z,1.80
2022-08-19T11:05:26.978Z,1.50
2022-08-19T11:06:26.957Z,1.50
2022-08-19T11:07:27.224Z,1.20
2022-08-19T11:08:26.927Z,1.20
2022-08-19T11:09:33.705Z,1.60
2022-08-19T11:10:26.945Z,1.40
2022-08-19T11:11:26.919Z,1.50
2022-08-19T11:12:26.886Z,1.50
2022-08-19T11:13:26.880Z,1.80
2022-08-19T11:14:27.254Z,1.50
2022-08-19T11:15:26.847Z,1.70
2022-08-19T11:16:26.870Z,1.40
2022-08-19T11:17:26.862Z,1.20
2022-08-19T11:18:26.827Z,1.50
2022-08-19T11:19:26.834Z,1.70
2022-08-19T11:20:26.801Z,1.70
2022-08-19T11:21:27.102Z,1.70
2022-08-19T11:22:35.345Z,1.60
2022-08-19T11:23:26.811Z,1.70
2022-08-19T11:24:26.777Z,1.70
2022-08-19T11:25:26.756Z,1.80
2022-08-19T11:26:26.761Z,1.80
2022-08-19T11:27:26.747Z,1.80
2022-08-19T11:28:27.164Z,1.80
2022-08-19T11:29:26.829Z,1.90
2022-08-19T11:30:26.743Z,1.50
2022-08-19T11:31:29.268Z,1.60
2022-08-19T11:32:26.699Z,1.70
2022-08-19T11:33:26.673Z,1.60
2022-08-19T11:34:26.727Z,1.40
2022-08-19T11:35:27.041Z,0.90
2022-08-19T11:36:26.680Z,1.40
2022-08-19T11:37:26.631Z,1.30
2022-08-19T11:38:26.642Z,1.10
2022-08-19T11:39:26.640Z,1.30
2022-08-19T11:40:26.622Z,1.50
2022-08-19T11:41:26.628Z,1.50
2022-08-19T11:42:27.012Z,1.50
2022-08-19T11:43:26.611Z,1.40
2022-08-19T11:44:26.575Z,1.40
2022-08-19T11:45:26.553Z,1.40
2022-08-19T11:46:26.561Z,1.60
2022-08-19T11:47:26.558Z,1.50
2022-08-19T11:48:26.557Z,1.60
2022-08-19T11:49:26.866Z,1.80
2022-08-19T11:50:26.525Z,1.40
2022-08-19T11:51:26.495Z,1.60
2022-08-19T11:52:26.499Z,1.80
2022-08-19T11:53:26.529Z,1.80
2022-08-19T11:54:26.476Z,2.00
2022-08-19T11:55:26.454Z,1.80
2022-08-19T11:56:26.449Z,1.80
2022-08-19T11:57:26.448Z,2.00
2022-08-19T11:58:26.434Z,1.90
2022-08-19T11:59:26.519Z,1.60
2022-08-19T12:00:26.424Z,1.60
2022-08-19T12:01:26.936Z,1.70
2022-08-19T12:02:26.404Z,1.80
2022-08-19T12:03:26.495Z,1.50
2022-08-19T12:04:26.406Z,1.50
2022-08-19T12:05:26.413Z,1.80
2022-08-19T12:06:26.361Z,1.40
2022-08-19T12:07:26.342Z,1.90
2022-08-19T12:08:26.333Z,1.90
2022-08-19T12:09:26.340Z,1.60
2022-08-19T12:10:26.695Z,2.00
2022-08-19T12:11:26.336Z,2.10
2022-08-19T12:12:26.340Z,2.10
2022-08-19T12:13:26.614Z,1.90
2022-08-19T12:14:26.274Z,1.80
2022-08-19T12:15:26.273Z,2.50
2022-08-19T12:16:26.255Z,2.20
2022-08-19T12:17:26.260Z,2.80
2022-08-19T12:18:26.235Z,2.70
2022-08-19T12:19:26.212Z,2.50
2022-08-19T12:20:26.675Z,2.40
2022-08-19T12:21:26.194Z,2.80
2022-08-19T12:22:26.228Z,3.30
2022-08-19T12:23:26.204Z,3.30
2022-08-19T12:24:26.168Z,2.80
2022-08-19T12:25:26.191Z,3.00
2022-08-19T12:26:26.154Z,3.10
2022-08-19T12:27:32.202Z,2.50
2022-08-19T12:28:26.135Z,2.60
2022-08-19T12:29:26.162Z,2.90
2022-08-19T12:30:26.109Z,3.00
2022-08-19T12:31:26.098Z,2.50
2022-08-19T12:32:26.126Z,2.70
2022-08-19T12:33:26.105Z,2.50
2022-08-19T12:34:26.564Z,3.50
2022-08-19T12:35:26.143Z,2.90
2022-08-19T12:36:26.063Z,2.60
2022-08-19T12:37:26.033Z,2.40
2022-08-19T12:38:26.047Z,2.50
2022-08-19T12:39:26.038Z,2.20
2022-08-19T12:40:26.380Z,2.20
2022-08-19T12:41:26.445Z,3.00
2022-08-19T12:42:25.997Z,2.80
2022-08-19T12:43:25.959Z,2.30
2022-08-19T12:44:29.333Z,2.40
2022-08-19T12:45:25.989Z,2.20
2022-08-19T12:46:26.107Z,2.50
2022-08-19T12:47:25.974Z,2.20
2022-08-19T12:48:33.481Z,2.70
2022-08-19T12:49:52.796Z,2.40
2022-08-19T12:50:25.935Z,2.60
2022-08-19T12:51:25.883Z,2.70
2022-08-19T12:52:25.910Z,2.20
2022-08-19T12:53:25.894Z,2.30
2022-08-19T12:54:25.860Z,2.30
2022-08-19T12:55:26.288Z,2.10
2022-08-19T12:56:25.828Z,2.00
2022-08-19T12:57:33.269Z,2.10
2022-08-19T12:58:27.458Z,2.00
2022-08-19T12:59:25.854Z,1.70
2022-08-19T13:00:25.792Z,2.00
2022-08-19T13:01:25.827Z,2.10
2022-08-19T13:02:26.127Z,1.60
2022-08-19T13:03:25.770Z,1.80
2022-08-19T13:04:25.810Z,2.10
2022-08-19T13:05:25.790Z,2.00
2022-08-19T13:06:25.765Z,1.70
2022-08-19T13:07:25.720Z,1.70
2022-08-19T13:08:25.726Z,1.70
2022-08-19T13:09:26.173Z,1.40
2022-08-19T13:10:25.693Z,1.60
2022-08-19T13:11:25.737Z,1.30
2022-08-19T13:12:25.709Z,1.60
2022-08-19T13:13:25.925Z,1.70
2022-08-19T13:14:25.659Z,1.90
2022-08-19T13:15:25.687Z,1.50
2022-08-19T13:16:26.071Z,1.70
2022-08-19T13:17:25.671Z,1.40
2022-08-19T13:18:25.628Z,1.90
2022-08-19T13:19:25.624Z,1.60
2022-08-19T13:20:25.609Z,1.90
2022-08-19T13:21:25.596Z,1.80
2022-08-19T13:22:25.580Z,1.70
2022-08-19T13:23:25.962Z,1.70
2022-08-19T13:24:26.352Z,1.60
2022-08-19T13:25:25.572Z,1.70
2022-08-19T13:26:25.552Z,1.70
2022-08-19T13:27:25.528Z,1.80
2022-08-19T13:28:29.241Z,1.60
2022-08-19T13:29:25.541Z,1.70
2022-08-19T13:30:25.786Z,1.90
2022-08-19T13:31:25.533Z,1.70
2022-08-19T13:32:25.483Z,1.80
2022-08-19T13:33:25.477Z,1.90
2022-08-19T13:34:25.490Z,2.10
2022-08-19T13:35:25.515Z,1.60
2022-08-19T13:36:25.449Z,1.60
2022-08-19T13:37:25.732Z,1.90
2022-08-19T13:38:25.458Z,1.60
2022-08-19T13:39:25.430Z,1.80
2022-08-19T13:40:25.410Z,2.00
2022-08-19T13:41:25.437Z,1.90
2022-08-19T13:42:25.371Z,1.80
2022-08-19T13:43:25.384Z,1.70